Weather observations for the past three days for
Baltimore / Martin
| Date | Time (edt) | Wind (kph) | Vis. (km) | Weather | Sky Cond. | Temperature (ºC) | Relative Humidity | Wind Chill (°C) | Heat Index (°C) | Pressure | Precipitation (cm) | ||||||
|---|---|---|---|---|---|---|---|---|---|---|---|---|---|---|---|---|---|
| Air | Dwpt | 6 hour | altimeter (cm) | sea level (mb) | 1 hr | 3 hr | 6 hr | ||||||||||
| Max. | Min. | ||||||||||||||||
| 04 | 02:17 | Calm | 16.09 | Fair | CLR | 8.6 | 2.1 | 64% | 76.25 | 0.0 | |||||||
| 04 | 01:55 | Calm | 16.09 | Fair | CLR | 9 | 2 | 15.2 | 6.6 | 62% | 76.25 | 0.0 | |||||
| 04 | 01:35 | Calm | 16.09 | Fair | CLR | 9 | 1.6 | 60% | 76.23 | 0.0 | |||||||
| 04 | 01:15 | W 6 | 16.09 | Fair | CLR | 11.1 | 0.1 | 47% | 76.23 | 0.0 | |||||||
| 04 | 00:55 | Calm | 16.09 | Fair | CLR | 8.2 | 2.6 | 68% | 76.25 | 0.0 | |||||||
| 04 | 00:35 | Calm | 16.09 | Fair | CLR | 7.9 | 2.8 | 70% | 76.25 | 0.0 | |||||||
| 04 | 00:15 | Calm | 16.09 | Fair | CLR | 8.8 | 2.1 | 63% | 76.23 | 0.0 | |||||||
| 03 | 23:55 | Calm | 16.09 | Fair | CLR | 8.7 | 1.4 | 60% | 76.23 | 0.0 | |||||||
| 03 | 23:35 | Calm | 16.09 | Fair | CLR | 8.4 | 1.5 | 62% | 76.2 | 0.0 | |||||||
| 03 | 23:15 | Calm | 16.09 | Fair | CLR | 9.3 | 1.5 | 59% | 76.2 | 0.0 | |||||||
| 03 | 22:55 | Calm | 16.09 | Fair | CLR | 9.8 | 2.2 | 59% | 76.2 | 0.0 | |||||||
| 03 | 22:35 | Calm | 16.09 | Fair | CLR | 9.9 | 3.3 | 64% | 76.2 | 0.0 | |||||||
| 03 | 22:15 | Calm | 16.09 | Fair | CLR | 9.9 | 2.7 | 61% | 76.2 | 0.0 | |||||||
| 03 | 21:45 | Calm | 16.09 | Fair | CLR | 11 | 2 | 54% | 76.17 | 0.0 | |||||||
| 03 | 20:45 | Calm | 16.09 | Fair | CLR | 12 | -2 | 38% | 76.15 | 0.0 | |||||||
| 03 | 19:54 | NW 6 | 16.09 | Fair | CLR | 15 | -5 | 25% | 76.12 | 0.0 | |||||||
| 03 | 18:45 | NW 19 | 16.09 | Fair | CLR | 17 | -6 | 20% | 76.1 | 0.0 | |||||||
| 03 | 17:54 | NW 20 G 35 | 16.09 | Fair | CLR | 17 | -7 | 19% | 76.1 | 0.0 | |||||||
| 03 | 16:54 | NW 24 G 37 | 16.09 | Fair | CLR | 17 | -7 | 19% | 76.1 | 0.0 | |||||||
| 03 | 15:54 | W 22 G 41 | 16.09 | Fair | CLR | 16 | -6 | 22% | 76.15 | 0.0 | |||||||
| 03 | 14:54 | NW 24 G 35 | 16.09 | Partly Cloudy | SCT075 | 16 | -5 | 23% | 76.17 | 0.0 | |||||||
| 03 | 14:45 | NW 20 G 31 | 16.09 | Partly Cloudy | SCT075 | 16 | -5 | 23% | 76.2 | 0.0 | |||||||
| 03 | 13:47 | NW 20 G 33 | 16.09 | Partly Cloudy | SCT075 | 15 | -5 | 25% | 76.23 | 0.0 | |||||||
| 03 | 12:47 | NW 24 G 37 | 16.09 | Fair | CLR | 14 | -6 | 25% | 76.25 | 0.0 | |||||||
| 03 | 11:45 | N 19 G 43 | 16.09 | Fair | CLR | 13 | -6 | 26% | 76.3 | 0.0 | |||||||
| 03 | 10:45 | N 30 G 35 | 16.09 | Mostly Cloudy | BKN060 | 11 | -5 | 32% | 76.3 | 0.0 | |||||||
| 03 | 09:45 | NW 30 G 39 | 16.09 | Partly Cloudy | SCT050 | 11 | -4 | 35% | 76.3 | 0.0 | |||||||
| 03 | 08:50 | N 31 G 44 | 16.09 | Fair | CLR | 10 | -3 | 40% | 7 | 76.3 | 0.0 | ||||||
| 03 | 07:45 | NW 24 G 33 | 16.09 | Fair | CLR | 8 | -2 | 50% | 5 | 76.25 | 0.0 | ||||||
| 03 | 06:49 | NW 17 | 16.09 | Fair | CLR | 6 | -1 | 61% | 3 | 76.2 | 0.0 | ||||||
| 03 | 05:45 | NW 19 | 16.09 | Fair | CLR | 6 | -1 | 61% | 3 | 76.12 | 0.0 | ||||||
| 03 | 05:15 | NW 15 | 16.09 | Fair | CLR | 5.2 | -1.2 | 64% | 2 | 76.12 | 0.0 | ||||||
| 03 | 04:55 | NW 13 | 16.09 | Fair | CLR | 6.5 | -1 | 59% | 4 | 76.12 | 0.0 | ||||||
| 03 | 04:35 | NW 19 | 16.09 | Fair | CLR | 6.5 | -0.9 | 60% | 3 | 76.1 | 0.0 | ||||||
| 03 | 04:15 | NW 17 | 16.09 | Fair | CLR | 6.2 | -0.7 | 62% | 3 | 76.1 | 0.0 | ||||||
| 03 | 03:55 | NW 17 | 16.09 | Fair | CLR | 6.5 | -0.6 | 61% | 4 | 76.07 | 0.0 | ||||||
| 03 | 03:35 | NW 11 | 16.09 | Fair | CLR | 6 | -0.5 | 63% | 4 | 76.05 | 0.0 | ||||||
| 03 | 03:15 | NW 19 | 16.09 | Fair | CLR | 6.3 | -0.5 | 62% | 3 | 76.05 | 0.0 | ||||||
| 03 | 02:55 | NW 17 | 16.09 | Fair | CLR | 6.9 | -0.5 | 60% | 4 | 76.05 | 0.0 | ||||||
| 03 | 02:35 | N 15 | 16.09 | Fair | CLR | 7.2 | -0.5 | 58% | 5 | 76.05 | 0.0 | ||||||
| 03 | 02:15 | NW 17 | 16.09 | Fair | CLR | 7.2 | -0.3 | 59% | 5 | 76.05 | 0.0 | ||||||
| 03 | 01:55 | NW 17 | 16.09 | Fair | CLR | 8 | -0.4 | 13.5 | 6.3 | 56% | 6 | 76.05 | 0.0 | ||||
| 03 | 01:35 | NW 15 | 16.09 | Fair | CLR | 8.1 | -0.2 | 56% | 6 | 76.05 | 0.0 | ||||||
| 03 | 01:15 | NW 11 | 16.09 | Fair | CLR | 7.3 | -0.1 | 60% | 5 | 76.05 | 0.0 | ||||||
| 03 | 00:55 | NW 15 | 16.09 | Fair | CLR | 6.3 | -0.2 | 63% | 4 | 76.05 | 0.0 | ||||||
| 03 | 00:35 | NW 15 | 16.09 | Fair | CLR | 8.5 | -0.6 | 53% | 6 | 76.05 | 0.0 | ||||||
| 03 | 00:15 | N 13 | 16.09 | Fair | CLR | 9.5 | -1 | 48% | 8 | 76.05 | 0.0 | ||||||
| 02 | 23:55 | N 15 G 28 | 16.09 | Fair | CLR | 9.4 | -0.5 | 50% | 7 | 76.07 | 0.0 | ||||||
| 02 | 23:35 | N 15 | 16.09 | Partly Cloudy | SCT095 | 9.4 | 0 | 52% | 7 | 76.07 | 0.0 | ||||||
| 02 | 23:15 | N 11 | 16.09 | Overcast | OVC095 | 10.7 | -0.5 | 46% | 76.07 | 0.0 | |||||||
| 02 | 22:55 | N 13 | 16.09 | Overcast | OVC095 | 11.2 | -0.9 | 43% | 76.07 | 0.0 | |||||||
| 02 | 22:35 | N 15 | 16.09 | Mostly Cloudy | BKN095 | 11.4 | -1.3 | 42% | 76.07 | 0.0 | |||||||
| 02 | 22:15 | N 13 | 16.09 | Fair | CLR | 11.6 | -1.7 | 40% | 76.07 | 0.0 | |||||||
| 02 | 21:45 | N 7 | 16.09 | Partly Cloudy | SCT090 | 11 | 0 | 47% | 76.07 | 0.0 | |||||||
| 02 | 20:45 | N 9 | 16.09 | Overcast | OVC090 | 13 | -2 | 36% | 76.02 | 0.0 | |||||||
| 02 | 19:54 | N 9 | 16.09 | Mostly Cloudy | BKN090 | 13 | -2 | 36% | 75.97 | 0.0 | |||||||
| 02 | 18:54 | N 15 | 16.09 | Partly Cloudy | SCT070 | 14 | -3 | 31% | 75.95 | 0.0 | |||||||
| 02 | 17:45 | N 15 | 16.09 | Mostly Cloudy | BKN080 | 16 | -3 | 27% | 75.95 | 0.0 | |||||||
| 02 | 15:54 | N 11 | 16.09 | Mostly Cloudy | BKN070 | 15 | -3 | 29% | 75.92 | 0.0 | |||||||
| 02 | 14:54 | NW 13 | 16.09 | Mostly Cloudy | BKN070 | 17 | -2 | 27% | 76 | 0.0 | |||||||
| 02 | 13:51 | NW 11 | 16.09 | Fair | CLR | 15 | -1 | 34% | 76.07 | 0.0 | |||||||
| 02 | 12:45 | NW 11 G 19 | 16.09 | Fair | CLR | 15 | -2 | 31% | 76.1 | 0.0 | |||||||
| 02 | 11:47 | NE 7 | 16.09 | Fair | CLR | 15 | -3 | 29% | 76.12 | 0.0 | |||||||
| 02 | 10:47 | N 7 | 16.09 | Fair | CLR | 13 | 0 | 41% | 76.12 | 0.0 | |||||||
| 02 | 09:50 | N 9 | 16.09 | Fair | CLR | 12 | 3 | 54% | 76.12 | 0.0 | |||||||
| 02 | 08:48 | N 11 | 16.09 | Partly Cloudy | SCT090 | 11 | 3 | 58% | 76.12 | 0.0 | |||||||
| 02 | 07:46 | N 15 | 16.09 | Mostly Cloudy | BKN100 | 10 | 2 | 58% | 8 | 76.12 | 0.0 | ||||||
| 02 | 06:51 | NW 15 | 16.09 | Overcast | OVC100 | 10 | 2 | 58% | 8 | 76.1 | 0.0 | ||||||
| 02 | 05:45 | NW 24 G 35 | 16.09 | Fair | CLR | 11 | 2 | 54% | 76.02 | 0.0 | |||||||
| 02 | 05:15 | NW 22 G 35 | 16.09 | Partly Cloudy | SCT075 | 11.2 | 2.4 | 55% | 76.02 | 0.0 | |||||||
| 02 | 04:55 | NW 20 G 31 | 16.09 | Mostly Cloudy | BKN075 | 11.6 | 4.8 | 63% | 76.02 | 0.0 | |||||||
| 02 | 04:35 | NW 13 | 16.09 | Overcast | OVC065 | 12 | 5.6 | 65% | 76.02 | 0.0 | |||||||
| 02 | 04:15 | NW 7 | 16.09 | Mostly Cloudy | BKN065 | 11.1 | 5.8 | 70% | 76 | 0.0 | |||||||
| 02 | 03:55 | NW 11 | 16.09 | Mostly Cloudy | BKN065 | 11.7 | 5.5 | 66% | 76 | 0.0 | |||||||
| 02 | 03:35 | NW 13 | 16.09 | Overcast | OVC065 | 11.7 | 5.9 | 68% | 76 | 0.0 | |||||||
| 02 | 03:15 | NW 15 | 16.09 | Mostly Cloudy | BKN065 BKN120 | 12.3 | 5.6 | 64% | 75.97 | 0.0 | |||||||
| 02 | 02:55 | N 11 | 16.09 | Overcast | OVC065 | 12.8 | 5.5 | 61% | 75.97 | 0.0 | |||||||
| 02 | 02:35 | NW 13 | 16.09 | Overcast | OVC065 | 12.9 | 5.5 | 61% | 76 | 0.0 | |||||||
| 02 | 02:15 | N 13 | 16.09 | Overcast | OVC065 | 13.3 | 5.9 | 61% | 76.02 | 0.0 | |||||||
| 02 | 01:55 | NW 11 | 16.09 | Overcast | OVC075 | 13.5 | 6.7 | 15.6 | 13.5 | 64% | 76 | 0.0 | |||||
| 02 | 01:35 | W 9 | 16.09 | Mostly Cloudy | SCT075 BKN085 | 13.8 | 6.5 | 62% | 76 | 0.0 | |||||||
| 02 | 01:15 | W 7 | 16.09 | Mostly Cloudy | SCT075 BKN085 BKN110 | 14.1 | 6.4 | 60% | 76.02 | 0.0 | |||||||
| 02 | 00:55 | W 11 | 16.09 | Overcast | BKN075 BKN085 OVC110 | 14.4 | 6.6 | 60% | 76.02 | 0.0 | |||||||
| 02 | 00:35 | W 7 | 16.09 | Overcast | OVC075 | 14.5 | 8.6 | 68% | 76.02 | 0.0 | |||||||
| 02 | 00:15 | W 9 | 16.09 | Light Rain | OVC075 | 14.7 | 8.9 | 68% | 76 | 0.0 | |||||||
| 01 | 23:55 | SW 13 | 16.09 | Overcast | OVC085 | 14.7 | 8.6 | 67% | 75.97 | 0.0 | |||||||
| 01 | 23:35 | SW 15 | 16.09 | Overcast | BKN085 OVC100 | 14.9 | 8.2 | 64% | 75.97 | 0.0 | |||||||
| 01 | 23:15 | SW 9 | 16.09 | Overcast | SCT085 OVC100 | 14.8 | 6.9 | 59% | 75.97 | 0.0 | |||||||
| 01 | 22:55 | S 17 | 16.09 | Overcast | OVC095 | 15 | 6.1 | 56% | 75.95 | 0.0 | |||||||
| 01 | 22:35 | S 17 G 30 | 16.09 | Mostly Cloudy | SCT095 BKN120 | 15 | 5.4 | 53% | 75.97 | 0.0 | |||||||
| 01 | 22:15 | S 20 | 16.09 | Partly Cloudy | SCT120 | 15.1 | 4.8 | 50% | 75.97 | 0.0 | |||||||
| 01 | 21:46 | S 19 | 16.09 | Mostly Cloudy | BKN110 | 15 | 6 | 55% | 75.95 | 0.0 | |||||||
| 01 | 20:46 | S 19 | 16.09 | Partly Cloudy | SCT120 | 16 | 5 | 48% | 75.9 | 0.0 | |||||||
| 01 | 19:46 | S 17 | 16.09 | Partly Cloudy | SCT120 | 16 | 6 | 52% | 75.87 | 0.0 | |||||||
| 01 | 18:45 | S 22 G 31 | 16.09 | Fair | CLR | 17 | 5 | 45% | 75.87 | 0.0 | |||||||
| 01 | 17:47 | S 24 | 16.09 | Fair | CLR | 18 | 4 | 40% | 75.9 | 0.0 | |||||||
| 01 | 16:46 | S 24 | 16.09 | Fair | CLR | 18 | 3 | 37% | 75.92 | 0.0 | |||||||
| 01 | 15:46 | S 22 | 16.09 | Fair | CLR | 17 | 2 | 37% | 75.97 | 0.0 | |||||||
| 01 | 14:46 | S 20 | 16.09 | Fair | CLR | 17 | 0 | 32% | 76.05 | 0.0 | |||||||
| 01 | 13:46 | S 17 | 16.09 | Fair | CLR | 16 | 1 | 36% | 76.1 | 0.0 | |||||||
| 01 | 12:45 | S 15 | 16.09 | Fair | CLR | 16 | 2 | 39% | 76.1 | 0.0 | |||||||
| 01 | 11:45 | SE 15 | 16.09 | Fair | CLR | 15 | 2 | 42% | 76.17 | 0.0 | |||||||
| 01 | 10:47 | SW 7 | 16.09 | Fair | CLR | 14 | 0 | 39% | 76.2 | 0.0 | |||||||
| 01 | 09:55 | NW 9 | 11.27 | Fair | CLR | 13 | 1 | 44% | 76.23 | 0.0 | |||||||
| 01 | 08:55 | W 9 | 16.09 | Fair | CLR | 12 | 3 | 54% | 76.25 | 0.0 | |||||||
| 01 | 07:54 | Calm | 16.09 | Fair | CLR | 9 | 4 | 71% | 76.23 | 0.0 | |||||||
| 01 | 06:49 | Calm | 16.09 | Fair | CLR | 6 | 3 | 81% | 76.2 | 0.0 | |||||||
| 01 | 05:45 | Calm | 16.09 | Fair | CLR | 6 | 2 | 76% | 76.17 | 0.0 | |||||||
| 01 | 05:15 | NW 6 | 16.09 | Fair | CLR | 6.4 | 2.1 | 74% | 76.17 | 0.0 | |||||||
| 01 | 04:55 | Calm | 16.09 | Fair | CLR | 6.3 | 2 | 74% | 76.17 | 0.0 | |||||||
| 01 | 04:35 | NW 6 | 16.09 | Fair | CLR | 5.9 | 1.8 | 75% | 76.17 | 0.0 | |||||||
| 01 | 04:15 | NW 7 | 16.09 | Fair | CLR | 6.5 | 1.9 | 73% | 5 | 76.15 | 0.0 | ||||||
| 01 | 03:55 | NW 7 | 16.09 | Fair | CLR | 7 | 2 | 71% | 6 | 76.15 | 0.0 | ||||||
| 01 | 03:35 | NW 11 | 16.09 | Fair | CLR | 6.9 | 2 | 71% | 5 | 76.12 | 0.0 | ||||||
| 01 | 03:15 | NW 11 | 16.09 | Fair | CLR | 6.8 | 2.1 | 72% | 5 | 76.12 | 0.0 | ||||||
| 01 | 02:55 | NW 13 | 16.09 | Fair | CLR | 6.9 | 2.1 | 72% | 5 | 76.12 | 0.0 | ||||||
| 01 | 02:35 | NW 13 | 16.09 | Fair | CLR | 7 | 2.2 | 72% | 5 | 76.1 | 0.0 | ||||||
| Date | Time (edt) | Wind (kph) | Vis. (km) | Weather | Sky Cond. | Air | Dwpt | Max. | Min. | Relative Humidity | Wind Chill (°C) | Heat Index (°C) | altimeter (cm) | sea level (mb) | 1 hr | 3 hr | 6 hr |
| 6 hour | |||||||||||||||||
| Temperature (ºC) | Pressure | Precipitation (cm) | |||||||||||||||